createdAt,value
2022-12-06T00:01:26.684Z,102373.88
2022-12-06T00:03:58.211Z,102370.41
2022-12-06T00:06:27.773Z,102371.25
2022-12-06T00:08:55.791Z,102372.19
2022-12-06T00:11:24.896Z,102373.88
2022-12-06T00:13:56.907Z,102375.66
2022-12-06T00:16:24.231Z,102368.84
2022-12-06T00:18:51.357Z,102372.44
2022-12-06T00:21:24.303Z,102372.44
2022-12-06T00:23:53.591Z,102372.44
2022-12-06T00:26:22.078Z,102373.25
2022-12-06T00:28:51.559Z,102371.47
2022-12-06T00:31:21.210Z,102376.75
2022-12-06T00:33:48.100Z,102369.91
2022-12-06T00:36:20.539Z,102368.34
2022-12-06T00:38:47.633Z,102374.34
2022-12-06T00:41:22.478Z,102384.88
2022-12-06T00:43:50.387Z,102378.03
2022-12-06T00:46:19.498Z,102378.03
2022-12-06T00:48:47.014Z,102378.88
2022-12-06T00:51:15.581Z,102374.44
2022-12-06T00:53:42.936Z,102371.81
2022-12-06T00:56:09.996Z,102374.44
2022-12-06T00:58:36.681Z,102378.75
2022-12-06T01:01:11.975Z,102375.16
2022-12-06T01:03:40.048Z,102373.38
2022-12-06T01:06:12.869Z,102376.84
2022-12-06T01:08:40.464Z,102377.81
2022-12-06T01:11:07.737Z,102374.22
2022-12-06T01:13:34.559Z,102382.97
2022-12-06T01:16:08.341Z,102377.72
2022-12-06T01:18:34.919Z,102374.13
2022-12-06T01:21:06.614Z,102374.13
2022-12-06T01:23:33.508Z,102373.25
2022-12-06T01:26:00.092Z,102381.06
2022-12-06T01:28:26.654Z,102376.63
2022-12-06T01:30:53.105Z,102374.13
2022-12-06T01:33:19.709Z,102376.03
2022-12-06T01:35:46.239Z,102375.31
2022-12-06T01:38:12.943Z,102379.72
2022-12-06T01:40:45.404Z,102372.03
2022-12-06T01:43:38.216Z,102372.53
2022-12-06T01:46:31.934Z,102368.22
2022-12-06T01:49:08.398Z,102373.38
2022-12-06T01:51:35.471Z,102369.06
2022-12-06T01:54:04.944Z,102358.63
2022-12-06T01:56:31.830Z,102360.44
2022-12-06T01:59:00.170Z,102354.56
2022-12-06T02:01:30.061Z,102353.97
2022-12-06T02:03:59.564Z,102356.47
2022-12-06T02:06:26.157Z,102353.09
2022-12-06T02:08:53.615Z,102357.41
2022-12-06T02:11:20.116Z,102353.34
2022-12-06T02:13:46.976Z,102351.06
2022-12-06T02:16:21.419Z,102353.28
2022-12-06T02:19:35.715Z,102354.38
2022-12-06T02:22:21.202Z,102366.00
2022-12-06T02:24:56.531Z,102358.31
2022-12-06T02:27:34.068Z,102358.56
2022-12-06T02:30:18.881Z,102355.28
2022-12-06T02:32:57.211Z,102359.72
2022-12-06T02:35:37.216Z,102355.50
2022-12-06T02:38:13.351Z,102351.09
2022-12-06T02:40:46.840Z,102356.25
2022-12-06T02:43:17.543Z,102357.19
2022-12-06T02:45:49.020Z,102351.09
2022-12-06T02:48:17.957Z,102348.56
2022-12-06T02:50:53.077Z,102348.47
2022-12-06T02:53:24.010Z,102349.28
2022-12-06T02:55:51.623Z,102358.78
2022-12-06T02:58:18.132Z,102351.69
2022-12-06T03:00:53.458Z,102358.78
2022-12-06T03:03:32.095Z,102353.50
2022-12-06T03:06:01.683Z,102352.66
2022-12-06T03:09:00.996Z,102357.69
2022-12-06T03:11:50.423Z,102349.06
2022-12-06T03:14:23.771Z,102349.06
2022-12-06T03:17:01.961Z,102351.84
2022-12-06T03:19:30.909Z,102344.66
2022-12-06T03:22:21.209Z,102350.88
2022-12-06T03:24:47.716Z,102349.06
2022-12-06T03:27:17.320Z,102344.03
2022-12-06T03:29:50.388Z,102347.38
2022-12-06T03:32:20.168Z,102349.19
2022-12-06T03:34:50.817Z,102350.75
2022-12-06T03:37:22.386Z,102349.06
2022-12-06T03:40:11.811Z,102350.16
2022-12-06T03:42:38.851Z,102349.19
2022-12-06T03:45:06.557Z,102350.88
2022-12-06T03:47:54.773Z,102341.31
2022-12-06T03:50:28.160Z,102337.00
2022-12-06T03:52:54.683Z,102338.66
2022-12-06T03:55:21.597Z,102342.97
2022-12-06T03:57:48.062Z,102349.06
2022-12-06T04:00:16.489Z,102334.22
2022-12-06T04:02:42.923Z,102343.94
2022-12-06T04:05:09.833Z,102339.25
2022-12-06T04:07:36.708Z,102335.91
2022-12-06T04:10:04.605Z,102332.44
2022-12-06T04:12:51.665Z,102332.22
2022-12-06T04:15:19.037Z,102336.63
2022-12-06T04:18:04.302Z,102340.34
2022-12-06T04:20:51.714Z,102349.78
2022-12-06T04:23:19.438Z,102336.63
2022-12-06T04:25:46.186Z,102345.47
2022-12-06T04:28:31.014Z,102337.72
2022-12-06T04:31:21.670Z,102341.91
2022-12-06T04:34:07.610Z,102348.13
2022-12-06T04:36:52.361Z,102337.81
2022-12-06T04:39:21.159Z,102342.75
2022-12-06T04:42:06.924Z,102342.84
2022-12-06T04:44:33.417Z,102345.63
2022-12-06T04:47:00.314Z,102337.72
2022-12-06T04:49:26.993Z,102338.91
2022-12-06T04:51:54.393Z,102336.25
2022-12-06T04:54:22.164Z,102330.50
2022-12-06T04:56:48.804Z,102332.19
2022-12-06T04:59:15.370Z,102332.06
2022-12-06T05:01:41.879Z,102336.50
2022-12-06T05:04:08.476Z,102331.31
2022-12-06T05:06:35.081Z,102338.50
2022-12-06T05:09:01.852Z,102330.81
2022-12-06T05:11:28.324Z,102327.25
2022-12-06T05:13:54.750Z,102323.78
2022-12-06T05:16:21.345Z,102324.00
2022-12-06T05:18:47.844Z,102324.00
2022-12-06T05:21:18.072Z,102327.69
2022-12-06T05:23:46.524Z,102318.97
2022-12-06T05:26:18.302Z,102323.59
2022-12-06T05:28:46.645Z,102331.72
2022-12-06T05:31:14.263Z,102323.81
2022-12-06T05:33:41.270Z,102330.69
2022-12-06T05:36:09.926Z,102328.88
2022-12-06T05:38:36.572Z,102327.09
2022-12-06T05:41:04.717Z,102329.72
2022-12-06T05:43:31.622Z,102330.53
2022-12-06T05:45:58.463Z,102328.78
2022-12-06T05:48:25.652Z,102320.88
2022-12-06T05:50:53.765Z,102329.81
2022-12-06T05:53:20.863Z,102325.41
2022-12-06T05:55:48.322Z,102323.59
2022-12-06T05:58:15.562Z,102328.03
2022-12-06T06:00:42.137Z,102333.31
2022-12-06T06:03:08.649Z,102323.72
2022-12-06T06:05:35.241Z,102336.75
2022-12-06T06:08:01.743Z,102333.41
2022-12-06T06:10:28.261Z,102334.47
2022-12-06T06:12:54.764Z,102331.13
2022-12-06T06:15:21.254Z,102331.22
2022-12-06T06:17:47.697Z,102334.81
2022-12-06T06:20:14.205Z,102321.03
2022-12-06T06:22:41.855Z,102334.19
2022-12-06T06:25:08.768Z,102345.44
2022-12-06T06:27:37.731Z,102337.78
2022-12-06T06:30:10.545Z,102328.31
2022-12-06T06:32:37.480Z,102329.66
2022-12-06T06:35:04.836Z,102327.13
2022-12-06T06:37:32.380Z,102325.44
2022-12-06T06:40:00.087Z,102330.72
2022-12-06T06:42:27.008Z,102335.97
2022-12-06T06:44:56.371Z,102324.63
2022-12-06T06:47:23.735Z,102333.34
2022-12-06T06:49:50.468Z,102326.19
2022-12-06T06:52:17.172Z,102324.63
2022-12-06T06:54:43.646Z,102333.13
2022-12-06T06:57:15.815Z,102325.44
2022-12-06T06:59:45.266Z,102328.09
2022-12-06T07:02:13.368Z,102330.22
2022-12-06T07:04:40.310Z,102332.84
2022-12-06T07:07:06.803Z,102337.28
2022-12-06T07:09:33.571Z,102331.38
2022-12-06T07:12:00.069Z,102324.66
2022-12-06T07:14:26.658Z,102327.41
2022-12-06T07:16:53.172Z,102321.00
2022-12-06T07:19:19.635Z,102324.94
2022-12-06T07:21:46.116Z,102321.78
2022-12-06T07:24:12.694Z,102325.91
2022-12-06T07:26:39.200Z,102323.63
2022-12-06T07:29:05.758Z,102317.94
2022-12-06T07:31:33.821Z,102322.91
2022-12-06T07:34:02.190Z,102319.22
2022-12-06T07:36:32.435Z,102326.13
2022-12-06T07:38:59.953Z,102330.84
2022-12-06T07:41:47.515Z,102333.91
2022-12-06T07:44:34.856Z,102327.47
2022-12-06T07:47:01.971Z,102328.22
2022-12-06T07:49:29.164Z,102320.22
2022-12-06T07:51:56.528Z,102338.50
2022-12-06T07:54:23.454Z,102338.81
2022-12-06T07:56:50.447Z,102339.75
2022-12-06T07:59:16.964Z,102340.78
2022-12-06T08:01:43.688Z,102344.56
2022-12-06T08:04:10.336Z,102343.84
2022-12-06T08:06:37.234Z,102328.41
2022-12-06T08:09:03.869Z,102337.09
2022-12-06T08:11:30.399Z,102339.00
2022-12-06T08:13:56.908Z,102348.97
2022-12-06T08:16:23.502Z,102353.38
2022-12-06T08:18:50.119Z,102355.34
2022-12-06T08:21:16.593Z,102346.00
2022-12-06T08:23:43.118Z,102350.44
2022-12-06T08:26:13.624Z,102354.19
2022-12-06T08:28:40.721Z,102346.59
2022-12-06T08:31:16.402Z,102357.75
2022-12-06T08:33:43.532Z,102358.38
2022-12-06T08:36:19.333Z,102351.16
2022-12-06T08:38:46.973Z,102352.94
2022-12-06T08:41:32.151Z,102344.03
2022-12-06T08:44:00.837Z,102350.84
2022-12-06T08:46:29.127Z,102351.28
2022-12-06T08:48:55.964Z,102353.59
2022-12-06T08:51:22.767Z,102352.44
2022-12-06T08:53:49.519Z,102354.78
2022-12-06T08:56:16.007Z,102355.41
2022-12-06T08:58:42.514Z,102355.00
2022-12-06T09:01:14.066Z,102356.47
2022-12-06T09:03:40.654Z,102356.38
2022-12-06T09:06:07.661Z,102353.41
2022-12-06T09:08:34.355Z,102355.00
2022-12-06T09:11:00.849Z,102350.91
2022-12-06T09:13:27.359Z,102343.47
2022-12-06T09:15:53.840Z,102348.78
2022-12-06T09:18:20.435Z,102355.28
2022-12-06T09:20:47.075Z,102343.75
2022-12-06T09:23:13.630Z,102346.56
2022-12-06T09:25:43.176Z,102354.75
2022-12-06T09:28:10.537Z,102358.63
2022-12-06T09:30:37.182Z,102352.09
2022-12-06T09:33:03.797Z,102364.25
2022-12-06T09:35:30.442Z,102362.66
2022-12-06T09:37:58.633Z,102356.50
2022-12-06T09:40:42.881Z,102362.25
2022-12-06T09:43:32.907Z,102355.88
2022-12-06T09:46:18.905Z,102342.91
2022-12-06T09:48:56.475Z,102356.22
2022-12-06T09:52:07.940Z,102350.53
2022-12-06T09:54:49.031Z,102349.25
2022-12-06T09:57:25.030Z,102353.69
2022-12-06T09:59:57.291Z,102351.75
2022-12-06T10:02:35.666Z,102348.91
2022-12-06T10:05:14.466Z,102346.25
2022-12-06T10:08:19.444Z,102344.00
2022-12-06T10:11:18.836Z,102332.84
2022-12-06T10:13:53.232Z,102325.78
2022-12-06T10:16:25.615Z,102327.13
2022-12-06T10:18:59.508Z,102333.75
2022-12-06T10:21:40.863Z,102330.88
2022-12-06T10:24:31.662Z,102322.34
2022-12-06T10:27:20.509Z,102316.06
2022-12-06T10:30:05.931Z,102315.00
2022-12-06T10:32:47.790Z,102326.31
2022-12-06T10:35:19.806Z,102320.06
2022-12-06T10:38:06.131Z,102310.00
2022-12-06T10:40:51.440Z,102311.44
2022-12-06T10:43:32.535Z,102311.69
2022-12-06T10:46:23.725Z,102312.75
2022-12-06T10:48:56.224Z,102318.63
2022-12-06T10:51:31.754Z,102313.84
2022-12-06T10:54:05.417Z,102304.69
2022-12-06T10:56:39.336Z,102299.19
2022-12-06T10:59:24.004Z,102308.16
2022-12-06T11:01:53.109Z,102301.50
2022-12-06T11:04:26.100Z,102300.66
2022-12-06T11:06:58.613Z,102306.75
2022-12-06T11:09:42.025Z,102311.66
2022-12-06T11:12:31.530Z,102307.53
2022-12-06T11:15:21.110Z,102307.81
2022-12-06T11:18:02.514Z,102304.69
2022-12-06T11:20:34.751Z,102299.63
2022-12-06T11:23:25.151Z,102302.88
2022-12-06T11:26:09.753Z,102298.00
2022-12-06T11:28:40.380Z,102294.50
2022-12-06T11:31:33.013Z,102288.00
2022-12-06T11:34:00.137Z,102289.56
2022-12-06T11:36:28.570Z,102279.38
2022-12-06T11:38:55.256Z,102280.34
2022-12-06T11:41:35.811Z,102283.22
2022-12-06T11:44:02.852Z,102273.00
2022-12-06T11:46:29.511Z,102270.59
2022-12-06T11:49:09.835Z,102268.97
2022-12-06T11:51:36.285Z,102272.31
2022-12-06T11:54:07.040Z,102267.63
2022-12-06T11:56:39.008Z,102261.75
2022-12-06T11:59:17.690Z,102262.34
2022-12-06T12:01:47.347Z,102261.50
2022-12-06T12:04:22.778Z,102254.44
2022-12-06T12:06:55.732Z,102261.50
2022-12-06T12:09:22.420Z,102255.41
2022-12-06T12:12:01.049Z,102256.94
2022-12-06T12:14:39.857Z,102253.72
2022-12-06T12:17:17.279Z,102263.78
2022-12-06T12:20:01.011Z,102256.22
2022-12-06T12:22:27.409Z,102257.19
2022-12-06T12:25:19.594Z,102245.53
2022-12-06T12:27:49.545Z,102237.22
2022-12-06T12:30:32.976Z,102249.66
2022-12-06T12:33:05.503Z,102241.03
2022-12-06T12:35:40.271Z,102239.03
2022-12-06T12:38:09.397Z,102240.56
2022-12-06T12:40:37.571Z,102236.13
2022-12-06T12:43:12.905Z,102244.44
2022-12-06T12:45:41.410Z,102231.75
2022-12-06T12:48:25.064Z,102226.19
2022-12-06T12:51:00.100Z,102221.19
2022-12-06T12:53:35.848Z,102218.72
2022-12-06T12:56:08.469Z,102218.63
2022-12-06T12:58:36.250Z,102222.78
2022-12-06T13:01:13.037Z,102227.09
2022-12-06T13:03:51.130Z,102205.78
2022-12-06T13:06:31.637Z,102213.94
2022-12-06T13:09:03.416Z,102211.19
2022-12-06T13:11:31.521Z,102217.38
2022-12-06T13:14:00.272Z,102210.84
2022-12-06T13:16:35.418Z,102213.31
2022-12-06T13:19:03.392Z,102209.25
2022-12-06T13:21:41.081Z,102201.41
2022-12-06T13:24:10.284Z,102208.09
2022-12-06T13:26:44.934Z,102204.66
2022-12-06T13:29:26.569Z,102206.16
2022-12-06T13:31:56.137Z,102201.53
2022-12-06T13:34:44.307Z,102202.81
2022-12-06T13:37:30.221Z,102194.38
2022-12-06T13:39:57.908Z,102207.91
2022-12-06T13:42:36.810Z,102198.03
2022-12-06T13:45:05.224Z,102203.88
2022-12-06T13:47:37.668Z,102200.97
2022-12-06T13:50:23.995Z,102204.31
2022-12-06T13:52:50.378Z,102201.84
2022-12-06T13:55:25.825Z,102201.69
2022-12-06T13:57:55.512Z,102199.03
2022-12-06T14:00:28.356Z,102195.69
2022-12-06T14:02:57.059Z,102192.22
2022-12-06T14:06:06.105Z,102189.41
2022-12-06T14:08:43.212Z,102201.31
2022-12-06T14:11:12.697Z,102198.22
2022-12-06T14:13:39.713Z,102189.03
2022-12-06T14:16:07.323Z,102178.41
2022-12-06T14:18:34.681Z,102188.25
2022-12-06T14:21:04.331Z,102184.66
2022-12-06T14:23:38.482Z,102176.72
2022-12-06T14:26:34.906Z,102185.34
2022-12-06T14:29:02.417Z,102180.06
2022-12-06T14:31:34.715Z,102176.03
2022-12-06T14:34:01.279Z,102170.56
2022-12-06T14:36:34.623Z,102177.75
2022-12-06T14:39:23.147Z,102182.47
2022-12-06T14:42:21.104Z,102176.16
2022-12-06T14:45:01.784Z,102171.38
2022-12-06T14:47:29.878Z,102163.72
2022-12-06T14:50:17.667Z,102167.59
2022-12-06T14:53:00.157Z,102165.59
2022-12-06T14:55:28.275Z,102160.56
2022-12-06T14:57:58.367Z,102165.97
2022-12-06T15:00:31.232Z,102153.88
2022-12-06T15:03:18.311Z,102160.13
2022-12-06T15:05:49.976Z,102157.59
2022-12-06T15:08:25.658Z,102157.75
2022-12-06T15:11:00.352Z,102151.91
2022-12-06T15:13:28.089Z,102151.19
2022-12-06T15:16:09.771Z,102151.28
2022-12-06T15:18:45.979Z,102146.41
2022-12-06T15:21:13.012Z,102152.41
2022-12-06T15:23:47.757Z,102143.78
2022-12-06T15:26:14.665Z,102142.81
2022-12-06T15:28:41.315Z,102140.69
2022-12-06T15:31:14.005Z,102137.31
2022-12-06T15:33:40.542Z,102142.59
2022-12-06T15:36:07.061Z,102142.00
2022-12-06T15:38:33.526Z,102142.84
2022-12-06T15:40:59.971Z,102137.59
2022-12-06T15:43:32.133Z,102142.41
2022-12-06T15:46:01.208Z,102138.09
2022-12-06T15:48:34.922Z,102134.47
2022-12-06T15:51:01.554Z,102140.72
2022-12-06T15:53:29.244Z,102138.44
2022-12-06T15:55:56.036Z,102145.53
2022-12-06T15:58:22.885Z,102134.13
2022-12-06T16:00:50.442Z,102137.47
2022-12-06T16:03:17.178Z,102143.84
2022-12-06T16:05:43.736Z,102143.25
2022-12-06T16:08:10.329Z,102135.75
2022-12-06T16:11:09.632Z,102139.34
2022-12-06T16:13:23.652Z,102131.06
2022-12-06T16:15:52.505Z,102137.19
2022-12-06T16:18:19.945Z,102127.72
2022-12-06T16:20:47.355Z,102139.38
2022-12-06T16:26:34.097Z,102142.00
2022-12-06T16:29:02.829Z,102133.94
2022-12-06T16:31:30.013Z,102143.44
2022-12-06T16:33:57.625Z,102144.41
2022-12-06T16:36:30.061Z,102131.47
2022-12-06T16:38:59.512Z,102128.69
2022-12-06T16:41:28.575Z,102121.97
2022-12-06T16:43:55.983Z,102132.16
2022-12-06T16:46:36.725Z,102128.22
2022-12-06T16:49:44.296Z,102122.94
2022-12-06T16:52:00.632Z,102125.59
2022-12-06T16:54:27.114Z,102111.81
2022-12-06T16:56:53.560Z,102111.09
2022-12-06T16:59:20.069Z,102113.59
2022-12-06T17:01:48.874Z,102104.38
2022-12-06T17:04:15.385Z,102112.41
2022-12-06T17:06:41.937Z,102106.56
2022-12-06T17:09:11.115Z,102103.91
2022-12-06T17:11:57.967Z,102118.06
2022-12-06T17:14:25.788Z,102115.53
2022-12-06T17:16:52.958Z,102102.34
2022-12-06T17:19:28.117Z,102106.09
2022-12-06T17:21:55.206Z,102102.50
2022-12-06T17:24:24.408Z,102108.59
2022-12-06T17:26:51.055Z,102122.63
2022-12-06T17:29:17.584Z,102110.63
2022-12-06T17:31:44.287Z,102107.75
2022-12-06T17:34:13.751Z,102114.00
2022-12-06T17:36:40.845Z,102094.59
2022-12-06T17:39:08.995Z,102094.34
2022-12-06T17:41:54.589Z,102106.66
2022-12-06T17:44:21.548Z,102092.91
2022-12-06T17:46:48.571Z,102091.94
2022-12-06T17:49:18.940Z,102092.06
2022-12-06T17:51:45.770Z,102087.16
2022-12-06T17:54:13.312Z,102086.72
2022-12-06T17:56:44.950Z,102095.09
2022-12-06T17:59:23.401Z,102092.94
2022-12-06T18:02:14.120Z,102091.53
2022-12-06T18:04:38.428Z,102092.00
2022-12-06T18:07:05.232Z,102089.16
2022-12-06T18:09:31.702Z,102099.94
2022-12-06T18:11:58.170Z,102098.25
2022-12-06T18:14:24.657Z,102106.38
2022-12-06T18:16:51.225Z,102097.28
2022-12-06T18:19:20.216Z,102096.81
2022-12-06T18:21:47.096Z,102110.94
2022-12-06T18:24:25.763Z,102112.13
2022-12-06T18:26:55.636Z,102106.63
2022-12-06T18:29:24.265Z,102103.03
2022-12-06T18:31:52.169Z,102110.94
2022-12-06T18:34:19.369Z,102108.53
2022-12-06T18:36:46.312Z,102100.06
2022-12-06T18:39:17.631Z,102091.31
2022-12-06T18:41:44.749Z,102096.72
2022-12-06T18:44:12.301Z,102102.06
2022-12-06T18:46:41.499Z,102090.81
2022-12-06T18:49:10.044Z,102097.75
2022-12-06T18:51:38.458Z,102089.16
2022-12-06T18:54:05.303Z,102091.91
2022-12-06T18:56:33.517Z,102094.31
2022-12-06T18:59:01.802Z,102094.41
2022-12-06T19:01:30.818Z,102092.75
2022-12-06T19:04:00.589Z,102092.75
2022-12-06T19:06:29.447Z,102091.19
2022-12-06T19:08:59.504Z,102093.13
2022-12-06T19:11:25.919Z,102086.03
2022-12-06T19:13:55.756Z,102093.81
2022-12-06T19:16:28.491Z,102102.69
2022-12-06T19:18:58.266Z,102102.53
2022-12-06T19:21:25.606Z,102102.31
2022-12-06T19:23:56.508Z,102097.75
2022-12-06T19:26:24.699Z,102101.13
2022-12-06T19:28:51.325Z,102092.50
2022-12-06T19:31:19.647Z,102093.34
2022-12-06T19:33:46.540Z,102095.28
2022-12-06T19:36:18.881Z,102104.59
2022-12-06T19:38:45.752Z,102101.13
2022-12-06T19:41:17.567Z,102103.66
2022-12-06T19:44:02.590Z,102098.25
2022-12-06T19:46:30.791Z,102095.63
2022-12-06T19:48:59.219Z,102098.97
2022-12-06T19:51:28.780Z,102101.38
2022-12-06T19:53:57.938Z,102103.03
2022-12-06T19:56:26.056Z,102095.38
2022-12-06T19:58:55.405Z,102097.91
2022-12-06T20:01:25.111Z,102098.97
2022-12-06T20:03:54.425Z,102098.97
2022-12-06T20:06:23.873Z,102099.19
2022-12-06T20:08:51.984Z,102100.88
2022-12-06T20:11:38.948Z,102101.97
2022-12-06T20:14:11.017Z,102090.00
2022-12-06T20:16:37.560Z,102102.06
2022-12-06T20:19:06.309Z,102102.22
2022-12-06T20:21:33.440Z,102101.50
2022-12-06T20:24:00.462Z,102103.41
2022-12-06T20:26:28.279Z,102093.22
2022-12-06T20:28:55.148Z,102100.16
2022-12-06T20:31:27.311Z,102113.19
2022-12-06T20:33:58.871Z,102109.63
2022-12-06T20:36:26.436Z,102112.34
2022-12-06T20:38:53.603Z,102108.44
2022-12-06T20:41:23.397Z,102105.56
2022-12-06T20:43:51.116Z,102111.41
2022-12-06T20:46:20.512Z,102103.41
2022-12-06T20:48:47.159Z,102107.81
2022-12-06T20:51:18.117Z,102100.66
2022-12-06T20:53:47.362Z,102099.94
2022-12-06T20:56:17.716Z,102103.50
2022-12-06T20:58:46.066Z,102098.63
2022-12-06T21:01:15.093Z,102105.56
2022-12-06T21:03:41.591Z,102092.50
2022-12-06T21:06:10.341Z,102095.13
2022-12-06T21:08:37.419Z,102101.00
2022-12-06T21:13:53.488Z,102096.56
2022-12-06T21:16:22.948Z,102090.34
2022-12-06T21:18:57.755Z,102087.00
2022-12-06T21:21:27.944Z,102081.25
2022-12-06T21:23:54.917Z,102080.66
2022-12-06T21:26:21.376Z,102080.66
2022-12-06T21:28:48.346Z,102086.66
2022-12-06T21:31:14.918Z,102093.69
2022-12-06T21:33:41.527Z,102096.47
2022-12-06T21:36:08.408Z,102092.63
2022-12-06T21:38:35.280Z,102094.53
2022-12-06T21:41:11.816Z,102096.53
2022-12-06T21:43:39.241Z,102100.13
2022-12-06T21:46:07.681Z,102101.31
2022-12-06T21:48:34.423Z,102093.91
2022-12-06T21:51:05.853Z,102088.16
2022-12-06T21:53:32.795Z,102095.72
2022-12-06T21:55:59.819Z,102087.91
2022-12-06T21:58:26.376Z,102089.50
2022-12-06T22:00:52.945Z,102095.34
2022-12-06T22:03:23.146Z,102088.78
2022-12-06T22:05:49.983Z,102104.78
2022-12-06T22:08:16.478Z,102099.13
2022-12-06T22:10:42.984Z,102092.66
2022-12-06T22:13:09.597Z,102098.66
2022-12-06T22:15:36.150Z,102103.41
2022-12-06T22:18:02.819Z,102100.41
2022-12-06T22:20:29.316Z,102101.59
2022-12-06T22:22:55.753Z,102101.59
2022-12-06T22:25:22.288Z,102100.88
2022-12-06T22:27:48.754Z,102090.69
2022-12-06T22:30:15.483Z,102099.44
2022-12-06T22:32:41.920Z,102111.22
2022-12-06T22:35:08.652Z,102112.41
2022-12-06T22:37:35.143Z,102110.66
2022-12-06T22:40:02.020Z,102110.28
2022-12-06T22:42:31.627Z,102109.56
2022-12-06T22:44:58.027Z,102121.41
2022-12-06T22:47:24.487Z,102117.81
2022-12-06T22:49:50.985Z,102111.25
2022-12-06T22:52:17.452Z,102109.34
2022-12-06T22:54:43.897Z,102105.13
2022-12-06T22:57:10.350Z,102091.28
2022-12-06T22:59:36.752Z,102088.78
2022-12-06T23:02:03.275Z,102104.66
2022-12-06T23:04:29.823Z,102104.38
2022-12-06T23:06:56.256Z,102092.88
2022-12-06T23:09:22.753Z,102096.44
2022-12-06T23:11:49.229Z,102096.44
2022-12-06T23:14:15.648Z,102092.59
2022-12-06T23:16:43.695Z,102096.38
2022-12-06T23:19:10.806Z,102100.28
2022-12-06T23:21:38.572Z,102102.69
2022-12-06T23:24:07.912Z,102100.28
2022-12-06T23:26:41.009Z,102104.47
2022-12-06T23:29:08.447Z,102112.13
2022-12-06T23:31:37.851Z,102100.47
2022-12-06T23:34:17.092Z,102104.78
2022-12-06T23:36:44.212Z,102106.44
2022-12-06T23:39:11.420Z,102104.63
2022-12-06T23:41:37.966Z,102102.97
2022-12-06T23:44:05.963Z,102107.06
2022-12-06T23:46:35.799Z,102110.63
2022-12-06T23:49:03.214Z,102109.06
2022-12-06T23:51:36.065Z,102102.75
2022-12-06T23:54:04.573Z,102092.47
2022-12-06T23:56:33.702Z,102103.81
2022-12-06T23:59:01.478Z,102105.72
